createdAt,value
2023-01-13T00:02:53.969Z,3.00
2023-01-13T00:05:55.475Z,2.15
2023-01-13T00:08:57.781Z,3.50
2023-01-13T00:11:59.308Z,4.40
2023-01-13T00:15:00.830Z,1.77
2023-01-13T00:18:02.437Z,3.92
2023-01-13T00:21:11.446Z,2.22
2023-01-13T00:24:12.979Z,5.70
2023-01-13T00:27:14.582Z,2.45
2023-01-13T00:30:16.355Z,3.85
2023-01-13T00:33:18.193Z,7.43
2023-01-13T00:36:20.692Z,3.38
2023-01-13T00:39:22.232Z,3.72
2023-01-13T00:42:42.229Z,4.03
2023-01-13T00:45:44.015Z,2.72
2023-01-13T00:48:47.027Z,4.53
2023-01-13T00:51:48.577Z,1.95
2023-01-13T00:54:50.110Z,2.53
2023-01-13T00:57:51.693Z,2.25
2023-01-13T01:00:53.303Z,4.93
2023-01-13T01:03:55.321Z,4.18
2023-01-13T01:06:56.819Z,2.58
2023-01-13T01:09:58.376Z,5.38
2023-01-13T01:12:59.864Z,5.65
2023-01-13T01:16:06.860Z,3.85
2023-01-13T01:19:08.495Z,2.97
2023-01-13T01:22:10.099Z,3.35
2023-01-13T01:25:11.730Z,3.25
2023-01-13T01:28:13.323Z,2.88
2023-01-13T01:31:20.653Z,2.50
2023-01-13T01:34:22.220Z,4.63
2023-01-13T01:37:23.728Z,2.65
2023-01-13T01:40:27.143Z,5.25
2023-01-13T01:44:00.296Z,4.68
2023-01-13T01:47:02.068Z,4.38
2023-01-13T01:50:04.695Z,3.88
2023-01-13T01:53:13.825Z,3.92
2023-01-13T01:56:17.047Z,4.03
2023-01-13T01:59:18.767Z,2.87
2023-01-13T02:02:20.826Z,4.00
2023-01-13T02:05:22.902Z,5.30
2023-01-13T02:08:25.078Z,4.03
2023-01-13T02:11:54.892Z,1.50
2023-01-13T02:15:03.021Z,2.30
2023-01-13T02:18:16.763Z,4.88
2023-01-13T02:21:26.982Z,2.42
2023-01-13T02:24:56.633Z,5.28
2023-01-13T02:28:26.449Z,2.40
2023-01-13T02:31:44.644Z,1.90
2023-01-13T02:35:00.176Z,2.88
2023-01-13T02:38:02.901Z,2.75
2023-01-13T02:41:29.056Z,3.13
2023-01-13T02:44:42.720Z,1.90
2023-01-13T02:47:47.767Z,2.72
2023-01-13T02:50:59.711Z,1.95
2023-01-13T02:54:07.475Z,2.28
2023-01-13T02:57:11.793Z,2.03
2023-01-13T03:00:15.507Z,3.28
2023-01-13T03:03:17.101Z,2.08
2023-01-13T03:06:30.802Z,1.50
2023-01-13T03:09:55.510Z,1.90
2023-01-13T03:16:28.280Z,2.83
2023-01-13T03:19:39.206Z,0.98
2023-01-13T03:22:49.090Z,1.95
2023-01-13T03:26:01.857Z,3.63
2023-01-13T03:29:22.020Z,0.85
2023-01-13T03:32:28.813Z,1.10
2023-01-13T03:35:47.228Z,3.55
2023-01-13T03:38:53.901Z,2.40
2023-01-13T03:42:01.471Z,1.33
2023-01-13T03:45:15.639Z,0.77
2023-01-13T03:48:20.998Z,2.85
2023-01-13T03:51:27.708Z,0.65
2023-01-13T03:54:33.907Z,2.88
2023-01-13T03:57:42.893Z,1.00
2023-01-13T04:00:52.262Z,1.33
2023-01-13T04:04:00.263Z,4.20
2023-01-13T04:07:23.255Z,1.23
2023-01-13T04:10:34.507Z,2.08
2023-01-13T04:13:40.081Z,3.17
2023-01-13T04:16:42.109Z,1.42
2023-01-13T04:19:43.645Z,1.55
2023-01-13T04:22:45.231Z,0.50
2023-01-13T04:25:47.404Z,0.50
2023-01-13T04:28:49.070Z,0.80
2023-01-13T04:31:50.650Z,0.68
2023-01-13T04:34:52.239Z,2.33
2023-01-13T04:37:53.813Z,0.50
2023-01-13T04:40:55.336Z,1.20
2023-01-13T04:43:56.914Z,0.77
2023-01-13T04:46:58.822Z,1.65
2023-01-13T04:50:00.348Z,1.23
2023-01-13T04:53:02.047Z,0.60
2023-01-13T04:56:03.691Z,0.70
2023-01-13T04:59:05.401Z,0.38
2023-01-13T05:02:08.970Z,0.63
2023-01-13T05:05:10.729Z,0.57
2023-01-13T05:08:12.307Z,0.73
2023-01-13T05:11:32.587Z,1.45
2023-01-13T05:14:52.380Z,0.75
2023-01-13T05:17:54.037Z,1.13
2023-01-13T05:20:55.739Z,2.22
2023-01-13T05:24:16.475Z,0.40
2023-01-13T05:27:18.530Z,1.55
2023-01-13T05:30:31.092Z,0.30
2023-01-13T05:33:34.881Z,2.13
2023-01-13T05:36:37.859Z,0.95
2023-01-13T05:40:00.470Z,0.40
2023-01-13T05:43:21.164Z,0.88
2023-01-13T05:46:22.850Z,1.40
2023-01-13T05:49:24.950Z,1.02
2023-01-13T05:52:26.628Z,0.40
2023-01-13T05:55:28.159Z,0.90
2023-01-13T05:58:29.707Z,1.75
2023-01-13T06:01:34.270Z,1.00
2023-01-13T06:04:35.851Z,1.25
2023-01-13T06:07:37.456Z,0.63
2023-01-13T06:10:39.236Z,1.10
2023-01-13T06:13:40.837Z,1.13
2023-01-13T06:16:42.406Z,0.85
2023-01-13T06:19:44.006Z,0.55
2023-01-13T06:22:48.046Z,0.50
2023-01-13T06:26:22.994Z,1.15
2023-01-13T06:32:32.500Z,0.45
2023-01-13T06:35:37.593Z,0.68
2023-01-13T06:38:42.923Z,0.40
2023-01-13T06:42:04.078Z,0.43
2023-01-13T06:45:06.033Z,0.30
2023-01-13T06:48:07.838Z,1.33
2023-01-13T06:51:09.459Z,0.75
2023-01-13T06:54:11.002Z,3.38
2023-01-13T06:57:12.577Z,1.73
2023-01-13T07:00:15.742Z,2.63
2023-01-13T07:03:18.776Z,0.65
2023-01-13T07:06:20.415Z,4.63
2023-01-13T07:09:22.029Z,2.88
2023-01-13T07:12:23.773Z,3.70
2023-01-13T07:15:30.057Z,1.85
2023-01-13T07:18:33.117Z,3.22
2023-01-13T07:21:34.671Z,3.53
2023-01-13T07:24:36.136Z,4.53
2023-01-13T07:27:38.112Z,2.00
2023-01-13T07:30:39.844Z,1.02
2023-01-13T07:33:41.464Z,4.68
2023-01-13T07:36:42.964Z,2.20
2023-01-13T07:39:45.409Z,0.70
2023-01-13T07:43:05.376Z,0.90
2023-01-13T07:46:07.183Z,0.50
2023-01-13T07:49:09.128Z,1.08
2023-01-13T07:52:10.711Z,1.52
2023-01-13T07:55:12.265Z,1.20
2023-01-13T07:58:13.765Z,0.77
2023-01-13T08:01:16.656Z,2.10
2023-01-13T08:04:18.577Z,1.35
2023-01-13T08:07:20.173Z,0.90
2023-01-13T08:10:21.708Z,0.63
2023-01-13T08:13:23.460Z,3.15
2023-01-13T08:16:25.157Z,1.90
2023-01-13T08:19:26.831Z,1.83
2023-01-13T08:22:31.033Z,1.15
2023-01-13T08:25:32.948Z,1.67
2023-01-13T08:28:34.960Z,1.00
2023-01-13T08:31:36.516Z,1.30
2023-01-13T08:34:38.012Z,0.45
2023-01-13T08:37:40.009Z,1.08
2023-01-13T08:40:41.667Z,1.60
2023-01-13T08:43:43.260Z,1.58
2023-01-13T08:46:44.796Z,1.23
2023-01-13T08:49:46.346Z,0.45
2023-01-13T08:52:47.876Z,1.48
2023-01-13T08:55:49.468Z,1.67
2023-01-13T08:58:51.125Z,4.15
2023-01-13T09:01:52.781Z,6.47
2023-01-13T09:04:55.327Z,1.40
2023-01-13T09:07:56.824Z,1.25
2023-01-13T09:10:58.606Z,1.23
2023-01-13T09:14:02.421Z,2.08
2023-01-13T09:17:04.946Z,0.63
2023-01-13T09:20:06.807Z,0.60
2023-01-13T09:23:10.569Z,1.27
2023-01-13T09:26:16.752Z,0.93
2023-01-13T09:29:18.716Z,1.77
2023-01-13T09:32:20.264Z,1.20
2023-01-13T09:35:21.789Z,1.05
2023-01-13T09:38:23.418Z,1.95
2023-01-13T09:41:45.965Z,2.05
2023-01-13T09:45:06.078Z,0.63
2023-01-13T09:48:24.607Z,1.00
2023-01-13T09:52:26.736Z,1.65
2023-01-13T09:55:34.059Z,0.32
2023-01-13T09:58:36.999Z,0.85
2023-01-13T10:02:17.055Z,3.40
2023-01-13T10:05:38.997Z,1.38
2023-01-13T10:08:43.305Z,0.40
2023-01-13T10:12:05.937Z,1.35
2023-01-13T10:15:19.834Z,1.70
2023-01-13T10:18:38.965Z,3.63
2023-01-13T10:22:04.387Z,1.75
2023-01-13T10:25:20.964Z,1.33
2023-01-13T10:28:23.972Z,3.40
2023-01-13T10:31:26.356Z,0.75
2023-01-13T10:34:29.180Z,3.50
2023-01-13T10:37:31.150Z,1.25
2023-01-13T10:40:32.753Z,4.70
2023-01-13T10:43:34.320Z,0.77
2023-01-13T10:46:51.982Z,1.23
2023-01-13T10:50:13.080Z,1.35
2023-01-13T10:53:22.927Z,0.90
2023-01-13T10:56:34.993Z,0.98
2023-01-13T10:59:36.598Z,0.95
2023-01-13T11:02:38.728Z,1.05
2023-01-13T11:05:40.846Z,2.05
2023-01-13T11:08:47.822Z,3.15
2023-01-13T11:11:55.548Z,2.65
2023-01-13T11:15:00.287Z,1.63
2023-01-13T11:18:09.381Z,1.40
2023-01-13T11:21:34.313Z,1.75
2023-01-13T11:25:01.788Z,2.15
2023-01-13T11:28:27.253Z,5.38
2023-01-13T11:31:38.064Z,4.45
2023-01-13T11:34:41.944Z,2.30
2023-01-13T11:37:50.325Z,3.28
2023-01-13T11:40:52.210Z,1.02
2023-01-13T11:44:13.086Z,2.20
2023-01-13T11:47:20.323Z,3.35
2023-01-13T11:50:33.933Z,2.38
2023-01-13T11:53:52.931Z,1.73
2023-01-13T11:57:22.389Z,1.92
2023-01-13T12:00:43.696Z,1.88
2023-01-13T12:04:00.134Z,3.47
2023-01-13T12:07:23.284Z,1.48
2023-01-13T12:10:30.983Z,7.03
2023-01-13T12:13:57.163Z,2.65
2023-01-13T12:17:01.298Z,1.33
2023-01-13T12:20:24.257Z,3.03
2023-01-13T12:23:51.766Z,4.28
2023-01-13T12:27:00.600Z,2.53
2023-01-13T12:30:13.860Z,1.80
2023-01-13T12:33:43.385Z,4.53
2023-01-13T12:37:09.479Z,2.60
2023-01-13T12:40:48.831Z,3.35
2023-01-13T12:44:11.358Z,4.97
2023-01-13T12:47:34.209Z,3.53
2023-01-13T12:50:41.034Z,1.63
2023-01-13T12:53:42.909Z,3.45
2023-01-13T12:56:45.323Z,2.75
2023-01-13T13:00:05.020Z,3.00
2023-01-13T13:03:13.656Z,4.82
2023-01-13T13:06:22.981Z,2.97
2023-01-13T13:09:36.605Z,3.95
2023-01-13T13:12:59.814Z,7.05
2023-01-13T13:16:26.510Z,4.00
2023-01-13T13:19:31.200Z,5.10
2023-01-13T13:22:44.594Z,4.38
2023-01-13T13:26:20.073Z,4.35
2023-01-13T13:29:58.372Z,4.63
2023-01-13T13:33:11.271Z,3.90
2023-01-13T13:36:58.479Z,5.72
2023-01-13T13:40:27.652Z,6.32
2023-01-13T13:43:56.974Z,5.90
2023-01-13T13:47:02.828Z,4.68
2023-01-13T13:50:20.882Z,7.28
2023-01-13T13:53:25.884Z,5.30
2023-01-13T13:56:29.176Z,5.93
2023-01-13T13:59:31.087Z,4.13
2023-01-13T14:02:38.607Z,2.97
2023-01-13T14:05:51.899Z,4.50
2023-01-13T14:08:53.387Z,2.20
2023-01-13T14:12:09.084Z,4.18
2023-01-13T14:15:34.982Z,3.65
2023-01-13T14:18:45.962Z,2.92
2023-01-13T14:21:48.300Z,5.72
2023-01-13T14:24:55.385Z,7.13
2023-01-13T14:27:59.541Z,4.22
2023-01-13T14:34:31.221Z,3.30
2023-01-13T14:37:54.428Z,4.53
2023-01-13T14:40:56.373Z,2.15
2023-01-13T14:44:00.419Z,2.83
2023-01-13T14:50:07.538Z,2.22
2023-01-13T14:53:28.006Z,3.15
2023-01-13T14:56:55.566Z,3.45
2023-01-13T15:00:08.063Z,2.33
2023-01-13T15:03:17.161Z,4.47
2023-01-13T15:06:24.431Z,5.82
2023-01-13T15:09:29.690Z,1.77
2023-01-13T15:12:36.210Z,4.57
2023-01-13T15:15:39.791Z,2.38
2023-01-13T15:18:41.371Z,3.50
2023-01-13T15:21:42.943Z,4.68
2023-01-13T15:24:44.486Z,3.15
2023-01-13T15:27:50.577Z,4.22
2023-01-13T15:30:54.450Z,5.47
2023-01-13T15:33:56.463Z,5.07
2023-01-13T15:36:58.000Z,4.20
2023-01-13T15:39:59.522Z,6.38
2023-01-13T15:43:19.640Z,2.75
2023-01-13T15:46:40.368Z,3.63
2023-01-13T15:49:46.273Z,3.63
2023-01-13T15:52:50.581Z,4.40
2023-01-13T15:55:57.717Z,2.45
2023-01-13T15:59:20.407Z,1.60
2023-01-13T16:02:22.657Z,2.80
2023-01-13T16:05:24.813Z,4.82
2023-01-13T16:08:26.432Z,2.22
2023-01-13T16:11:27.996Z,3.05
2023-01-13T16:14:29.585Z,6.30
2023-01-13T16:17:35.027Z,3.42
2023-01-13T16:20:36.755Z,5.22
2023-01-13T16:23:38.309Z,4.55
2023-01-13T16:26:40.080Z,3.10
2023-01-13T16:29:42.455Z,5.32
2023-01-13T16:32:44.068Z,3.83
2023-01-13T16:36:11.814Z,3.80
2023-01-13T16:39:20.840Z,4.88
2023-01-13T16:42:22.574Z,5.90
2023-01-13T16:45:24.886Z,5.95
2023-01-13T16:48:26.558Z,3.03
2023-01-13T16:51:28.396Z,3.20
2023-01-13T16:54:29.937Z,5.78
2023-01-13T16:57:31.505Z,2.83
2023-01-13T17:00:34.037Z,2.80
2023-01-13T17:03:44.392Z,4.38
2023-01-13T17:07:00.444Z,5.00
2023-01-13T17:10:02.092Z,4.35
2023-01-13T17:13:14.863Z,4.72
2023-01-13T17:16:21.118Z,4.30
2023-01-13T17:23:13.449Z,9.52
2023-01-13T17:26:27.424Z,10.57
2023-01-13T17:29:29.078Z,11.43
2023-01-13T17:32:30.707Z,11.55
2023-01-13T17:35:32.330Z,13.25
2023-01-13T17:38:36.889Z,5.93
2023-01-13T17:41:38.487Z,2.83
2023-01-13T17:44:40.170Z,3.95
2023-01-13T17:47:41.817Z,4.03
2023-01-13T17:50:47.542Z,4.40
2023-01-13T17:53:49.177Z,3.90
2023-01-13T17:56:50.785Z,5.28
2023-01-13T17:59:52.316Z,6.97
2023-01-13T18:02:54.501Z,4.43
2023-01-13T18:06:02.700Z,2.92
2023-01-13T18:09:04.365Z,5.88
2023-01-13T18:12:06.197Z,3.20
2023-01-13T18:15:08.177Z,3.53
2023-01-13T18:18:09.704Z,8.77
2023-01-13T18:21:38.289Z,3.08
2023-01-13T18:24:58.580Z,3.17
2023-01-13T18:28:03.297Z,2.05
2023-01-13T18:31:05.176Z,5.35
2023-01-13T18:34:06.861Z,9.30
2023-01-13T18:37:12.256Z,3.33
2023-01-13T18:40:14.175Z,6.95
2023-01-13T18:43:15.718Z,5.03
2023-01-13T18:46:17.363Z,5.28
2023-01-13T18:49:19.064Z,2.97
2023-01-13T18:52:21.711Z,4.90
2023-01-13T18:55:25.134Z,5.88
2023-01-13T18:58:27.873Z,4.72
2023-01-13T19:01:29.934Z,3.03
2023-01-13T19:04:32.639Z,7.05
2023-01-13T19:07:35.701Z,6.88
2023-01-13T19:10:39.765Z,3.72
2023-01-13T19:13:47.598Z,3.85
2023-01-13T19:16:49.118Z,8.48
2023-01-13T19:19:55.377Z,3.55
2023-01-13T19:22:56.947Z,4.80
2023-01-13T19:26:06.340Z,7.00
2023-01-13T19:29:08.736Z,3.55
2023-01-13T19:32:10.720Z,3.88
2023-01-13T19:35:17.184Z,4.43
2023-01-13T19:38:18.747Z,6.60
2023-01-13T19:41:38.883Z,5.32
2023-01-13T19:44:59.356Z,3.88
2023-01-13T19:48:02.304Z,3.05
2023-01-13T19:51:04.457Z,4.63
2023-01-13T19:54:05.959Z,3.75
2023-01-13T19:57:07.521Z,3.30
2023-01-13T20:00:10.070Z,9.18
2023-01-13T20:03:20.507Z,2.95
2023-01-13T20:06:22.146Z,5.00
2023-01-13T20:09:23.692Z,4.88
2023-01-13T20:12:29.198Z,6.70
2023-01-13T20:15:31.650Z,4.05
2023-01-13T20:18:36.421Z,5.38
2023-01-13T20:21:39.711Z,6.15
2023-01-13T20:24:41.589Z,5.93
2023-01-13T20:27:43.912Z,4.93
2023-01-13T20:30:45.684Z,10.05
2023-01-13T20:33:50.444Z,5.57
2023-01-13T20:36:52.180Z,5.10
2023-01-13T20:39:55.275Z,7.63
2023-01-13T20:42:57.009Z,7.18
2023-01-13T20:45:58.691Z,4.43
2023-01-13T20:49:00.303Z,8.55
2023-01-13T20:52:03.471Z,4.57
2023-01-13T20:55:07.047Z,8.85
2023-01-13T20:58:08.842Z,8.30
2023-01-13T21:01:10.407Z,5.80
2023-01-13T21:04:12.103Z,7.70
2023-01-13T21:07:13.903Z,9.50
2023-01-13T21:10:18.809Z,6.85
2023-01-13T21:13:39.036Z,9.68
2023-01-13T21:16:40.754Z,8.32
2023-01-13T21:19:42.342Z,7.07
2023-01-13T21:22:48.454Z,8.73
2023-01-13T21:25:50.022Z,8.73
2023-01-13T21:28:56.196Z,7.70
2023-01-13T21:31:57.844Z,9.82
2023-01-13T21:34:59.383Z,7.25
2023-01-13T21:38:01.063Z,11.57
2023-01-13T21:41:06.253Z,10.63
2023-01-13T21:44:34.250Z,6.57
2023-01-13T21:47:51.966Z,7.70
2023-01-13T21:50:53.502Z,6.43
2023-01-13T21:53:55.872Z,7.00
2023-01-13T21:56:57.498Z,7.47
2023-01-13T21:59:59.114Z,5.63
2023-01-13T22:03:05.642Z,6.68
2023-01-13T22:06:07.302Z,7.22
2023-01-13T22:09:08.879Z,8.18
2023-01-13T22:12:10.655Z,8.75
2023-01-13T22:15:14.958Z,7.18
2023-01-13T22:18:18.097Z,12.90
2023-01-13T22:21:20.075Z,7.47
2023-01-13T22:24:21.575Z,10.18
2023-01-13T22:27:26.165Z,7.93
2023-01-13T22:30:32.116Z,7.57
2023-01-13T22:33:33.653Z,7.20
2023-01-13T22:36:35.197Z,9.68
2023-01-13T22:39:36.808Z,7.97
2023-01-13T22:42:42.502Z,11.73
2023-01-13T22:45:44.074Z,7.10
2023-01-13T22:48:46.088Z,8.48
2023-01-13T22:51:47.766Z,10.98
2023-01-13T22:54:49.311Z,13.65
2023-01-13T22:57:50.964Z,12.80
2023-01-13T23:00:53.244Z,15.48
2023-01-13T23:03:55.429Z,15.95
2023-01-13T23:06:57.053Z,9.90
2023-01-13T23:09:58.577Z,13.82
2023-01-13T23:13:00.135Z,10.63
2023-01-13T23:16:03.972Z,12.38
2023-01-13T23:19:06.964Z,11.45
2023-01-13T23:22:08.482Z,10.85
2023-01-13T23:25:10.883Z,16.20
2023-01-13T23:28:12.594Z,16.00
2023-01-13T23:31:19.554Z,10.88
2023-01-13T23:34:21.223Z,12.45
2023-01-13T23:37:22.830Z,11.57
2023-01-13T23:40:24.570Z,14.25
2023-01-13T23:43:29.863Z,9.48
2023-01-13T23:46:32.704Z,17.20
2023-01-13T23:49:34.591Z,11.30
2023-01-13T23:52:36.202Z,16.88
2023-01-13T23:55:37.713Z,11.35
2023-01-13T23:58:39.812Z,15.88
